createdAt,value
2023-05-06T00:00:52.711Z,4.59
2023-05-06T00:05:57.121Z,4.50
2023-05-06T00:11:01.865Z,4.45
2023-05-06T00:16:06.309Z,4.42
2023-05-06T00:21:12.744Z,4.34
2023-05-06T00:26:16.764Z,4.35
2023-05-06T00:31:21.811Z,4.33
2023-05-06T00:36:26.041Z,4.29
2023-05-06T00:41:34.230Z,4.27
2023-05-06T00:46:40.439Z,4.24
2023-05-06T00:51:44.823Z,4.23
2023-05-06T00:56:48.802Z,4.23
2023-05-06T01:01:54.261Z,4.24
2023-05-06T01:07:13.152Z,4.21
2023-05-06T01:12:29.872Z,4.15
2023-05-06T01:17:43.101Z,4.12
2023-05-06T01:22:51.269Z,4.07
2023-05-06T01:27:55.795Z,4.04
2023-05-06T01:33:03.583Z,3.93
2023-05-06T01:38:35.175Z,3.86
2023-05-06T01:43:43.847Z,3.73
2023-05-06T01:48:54.329Z,3.62
2023-05-06T01:53:58.139Z,3.52
2023-05-06T01:59:04.207Z,3.45
2023-05-06T02:04:08.269Z,3.42
2023-05-06T02:09:13.001Z,3.33
2023-05-06T02:14:17.134Z,3.23
2023-05-06T02:19:21.176Z,3.18
2023-05-06T02:24:27.247Z,3.12
2023-05-06T02:29:30.863Z,3.05
2023-05-06T02:34:36.115Z,2.95
2023-05-06T02:39:40.972Z,2.87
2023-05-06T02:44:46.152Z,2.80
2023-05-06T02:49:50.961Z,2.74
2023-05-06T02:54:55.106Z,2.69
2023-05-06T03:00:00.866Z,2.68
2023-05-06T03:05:05.934Z,2.69
2023-05-06T03:10:10.373Z,2.76
2023-05-06T03:15:14.082Z,2.81
2023-05-06T03:20:17.926Z,2.85
2023-05-06T03:25:22.980Z,2.94
2023-05-06T03:30:27.003Z,3.09
2023-05-06T03:35:33.195Z,3.19
2023-05-06T03:40:38.337Z,3.32
2023-05-06T03:45:43.223Z,3.40
2023-05-06T03:50:53.056Z,3.55
2023-05-06T03:55:57.152Z,3.70
2023-05-06T04:01:01.227Z,3.86
2023-05-06T04:06:06.803Z,4.02
2023-05-06T04:11:11.449Z,4.18
2023-05-06T04:16:17.146Z,4.33
2023-05-06T04:21:21.033Z,4.41
2023-05-06T04:26:25.697Z,4.52
2023-05-06T04:31:31.134Z,4.64
2023-05-06T04:36:35.894Z,4.78
2023-05-06T04:41:41.073Z,4.88
2023-05-06T04:46:45.134Z,5.01
2023-05-06T04:51:48.842Z,5.12
2023-05-06T04:56:54.472Z,5.18
2023-05-06T05:01:59.160Z,5.22
2023-05-06T05:07:04.186Z,5.35
2023-05-06T05:12:08.239Z,5.47
2023-05-06T05:17:12.050Z,5.65
2023-05-06T05:22:17.096Z,5.87
2023-05-06T05:27:21.125Z,6.02
2023-05-06T05:32:25.879Z,6.23
2023-05-06T05:37:30.206Z,6.42
2023-05-06T05:42:35.160Z,6.54
2023-05-06T05:47:40.129Z,6.63
2023-05-06T05:52:47.754Z,6.69
2023-05-06T05:57:52.977Z,6.89
2023-05-06T06:02:58.746Z,7.09
2023-05-06T06:08:04.134Z,7.26
2023-05-06T06:13:09.268Z,7.61
2023-05-06T06:18:13.307Z,7.90
2023-05-06T06:23:19.082Z,8.13
2023-05-06T06:28:24.948Z,8.36
2023-05-06T06:33:30.654Z,8.46
2023-05-06T06:38:37.697Z,8.71
2023-05-06T06:43:42.086Z,9.06
2023-05-06T06:48:47.451Z,9.29
2023-05-06T06:53:52.618Z,9.42
2023-05-06T06:58:57.304Z,9.56
2023-05-06T07:05:23.299Z,9.75
2023-05-06T07:11:12.384Z,10.18
2023-05-06T07:23:37.083Z,10.84
2023-05-06T07:35:30.606Z,10.86
2023-05-06T07:48:02.129Z,11.38
2023-05-06T07:53:05.868Z,11.53
2023-05-06T07:58:09.657Z,11.70
2023-05-06T08:03:24.237Z,11.78
2023-05-06T08:08:30.723Z,11.88
2023-05-06T08:13:55.236Z,12.09
2023-05-06T08:19:51.399Z,12.35
2023-05-06T08:25:39.156Z,12.44
2023-05-06T08:30:43.080Z,12.45
2023-05-06T08:37:09.375Z,12.71
2023-05-06T08:42:13.257Z,12.82
2023-05-06T08:47:42.370Z,12.87
2023-05-06T08:52:48.083Z,12.83
2023-05-06T08:58:17.589Z,12.70
2023-05-06T09:03:54.429Z,12.68
2023-05-06T09:09:02.006Z,12.80
2023-05-06T09:14:43.862Z,12.90
2023-05-06T09:20:13.065Z,12.91
2023-05-06T09:25:17.888Z,12.86
2023-05-06T09:30:48.182Z,12.93
2023-05-06T09:35:52.373Z,13.02
2023-05-06T09:41:23.119Z,13.17
2023-05-06T09:46:28.444Z,13.25
2023-05-06T09:51:33.542Z,13.20
2023-05-06T09:56:41.274Z,13.10
2023-05-06T10:03:03.147Z,13.17
2023-05-06T10:08:09.817Z,13.44
2023-05-06T10:13:27.200Z,13.56
2023-05-06T10:19:23.145Z,13.75
2023-05-06T10:24:46.914Z,13.83
2023-05-06T10:30:43.276Z,13.97
2023-05-06T10:36:10.972Z,14.08
2023-05-06T10:41:40.457Z,14.17
2023-05-06T10:47:09.791Z,14.34
2023-05-06T10:52:17.330Z,14.35
2023-05-06T10:57:43.242Z,14.32
2023-05-06T11:03:42.604Z,14.24
2023-05-06T11:08:59.138Z,14.42
2023-05-06T11:14:30.421Z,14.28
2023-05-06T11:20:22.127Z,14.13
2023-05-06T11:25:45.408Z,14.19
2023-05-06T11:32:11.512Z,14.26
2023-05-06T11:44:51.059Z,14.50
2023-05-06T11:50:49.392Z,14.37
2023-05-06T11:55:54.845Z,14.48
2023-05-06T12:01:24.338Z,14.47
2023-05-06T12:06:38.161Z,14.49
2023-05-06T12:11:45.060Z,14.57
2023-05-06T12:16:49.189Z,14.41
2023-05-06T12:21:52.998Z,14.27
2023-05-06T12:26:56.822Z,14.12
2023-05-06T12:32:58.460Z,14.11
2023-05-06T12:38:17.231Z,13.98
2023-05-06T12:43:34.727Z,13.80
2023-05-06T12:48:39.789Z,13.80
2023-05-06T12:55:05.843Z,13.70
2023-05-06T13:00:11.645Z,13.61
2023-05-06T13:05:16.476Z,13.62
2023-05-06T13:10:21.009Z,13.72
2023-05-06T13:15:27.315Z,13.83
2023-05-06T13:20:34.689Z,13.86
2023-05-06T13:25:55.967Z,13.87
2023-05-06T13:31:06.877Z,13.83
2023-05-06T13:36:10.976Z,13.75
2023-05-06T13:41:18.048Z,13.65
2023-05-06T13:46:24.879Z,13.54
2023-05-06T13:51:30.958Z,13.52
2023-05-06T13:56:38.523Z,13.52
2023-05-06T14:01:43.278Z,13.52
2023-05-06T14:06:46.979Z,13.55
2023-05-06T14:11:51.966Z,13.52
2023-05-06T14:16:56.309Z,13.45
2023-05-06T14:22:01.256Z,13.37
2023-05-06T14:27:06.062Z,13.38
2023-05-06T14:32:10.351Z,13.39
2023-05-06T14:37:39.258Z,13.40
2023-05-06T14:43:32.558Z,13.46
2023-05-06T14:48:36.274Z,13.52
2023-05-06T14:55:05.815Z,13.52
2023-05-06T15:00:10.708Z,13.48
2023-05-06T15:06:04.312Z,13.46
2023-05-06T15:19:37.129Z,13.35
2023-05-06T15:29:07.612Z,13.17
2023-05-06T16:06:50.993Z,12.84
2023-05-06T16:11:55.224Z,12.81
2023-05-06T16:17:26.220Z,12.77
2023-05-06T16:23:46.924Z,12.80
2023-05-06T16:29:40.946Z,12.76
2023-05-06T16:36:20.465Z,12.75
2023-05-06T16:48:54.265Z,12.57
2023-05-06T16:54:51.689Z,12.51
2023-05-06T17:07:25.026Z,12.47
2023-05-06T17:12:28.958Z,12.43
2023-05-06T17:17:35.035Z,12.39
2023-05-06T17:22:41.414Z,12.33
2023-05-06T17:27:49.502Z,12.26
2023-05-06T17:32:55.722Z,12.21
2023-05-06T17:38:00.485Z,12.13
2023-05-06T17:43:07.695Z,12.07
2023-05-06T17:48:12.517Z,12.04
2023-05-06T17:53:17.576Z,11.96
2023-05-06T17:58:21.958Z,11.88
2023-05-06T18:03:26.052Z,11.75
2023-05-06T18:08:31.745Z,11.67
2023-05-06T18:13:37.188Z,11.58
2023-05-06T18:18:41.220Z,11.47
2023-05-06T18:23:44.837Z,11.41
2023-05-06T18:28:49.714Z,11.31
2023-05-06T18:33:54.136Z,11.24
2023-05-06T18:38:58.582Z,11.17
2023-05-06T18:44:04.930Z,11.10
2023-05-06T18:49:09.711Z,11.05
2023-05-06T18:54:48.966Z,11.00
2023-05-06T19:00:44.769Z,10.94
2023-05-06T19:12:38.872Z,10.83
2023-05-06T19:32:59.053Z,10.52
2023-05-06T19:45:17.473Z,10.32
2023-05-06T19:50:23.604Z,10.25
2023-05-06T19:55:28.451Z,10.20
2023-05-06T20:00:33.394Z,10.11
2023-05-06T20:05:37.367Z,10.04
2023-05-06T20:10:41.264Z,9.98
2023-05-06T20:15:45.643Z,9.92
2023-05-06T20:20:49.614Z,9.84
2023-05-06T20:25:54.262Z,9.77
2023-05-06T20:31:00.046Z,9.70
2023-05-06T20:36:06.030Z,9.60
2023-05-06T20:41:10.171Z,9.57
2023-05-06T20:46:14.223Z,9.52
2023-05-06T20:51:20.353Z,9.46
2023-05-06T20:56:25.536Z,9.43
2023-05-06T21:01:29.785Z,9.37
2023-05-06T21:06:33.793Z,9.31
2023-05-06T21:11:38.623Z,9.29
2023-05-06T21:16:43.375Z,9.23
2023-05-06T21:21:47.314Z,9.22
2023-05-06T21:26:52.045Z,9.13
2023-05-06T21:31:55.885Z,9.07
2023-05-06T21:37:00.213Z,9.00
2023-05-06T21:42:04.563Z,8.94
2023-05-06T21:47:10.263Z,8.82
2023-05-06T21:52:14.057Z,8.73
2023-05-06T21:57:19.204Z,8.68
2023-05-06T22:02:23.196Z,8.63
2023-05-06T22:07:26.882Z,8.56
2023-05-06T22:17:41.510Z,8.40
2023-05-06T22:22:45.202Z,8.34
2023-05-06T22:27:48.984Z,8.29
2023-05-06T22:32:52.803Z,8.33
2023-05-06T22:37:57.303Z,8.29
2023-05-06T22:43:01.216Z,8.24
2023-05-06T22:48:06.642Z,8.18
2023-05-06T22:53:14.988Z,8.10
2023-05-06T22:58:21.198Z,7.96
2023-05-06T23:03:25.337Z,7.81
2023-05-06T23:08:29.359Z,7.75
2023-05-06T23:13:36.382Z,7.70
2023-05-06T23:18:41.551Z,7.58
2023-05-06T23:23:45.233Z,7.48
2023-05-06T23:28:49.273Z,7.40
2023-05-06T23:33:53.211Z,7.33
2023-05-06T23:38:57.237Z,7.22
2023-05-06T23:44:01.197Z,7.10
2023-05-06T23:49:05.907Z,7.00
2023-05-06T23:54:09.845Z,6.91
2023-05-06T23:59:14.305Z,6.81
